Historyczne dane pomiarowe

Dodano dane terminowe – wersja testowa.

Dane z okresu 1951-2019

Wersja bazy: 1.34 [2019-03-16, lista zmian], aktualizacja planowana na 2019-04-15

Dane meteo z obszaru Polski uzyskane na podstawie danych udostępnionych przez Instytut Meteorologii i Gospodarki Wodnej – Państwowy Instytut Badawczy.

 

Wybierz Datę:    

       

TemperaturaWilgotnośćWiatrCiśnienieOpadyŚniegCzas trwania zjawisk
 Stacja t tx tn tng RH VA  wxwx mslp ppp RRR   cm mm wxwxwxwxwxwxwx
1991-03-15 11.1 17.2 6.6--- 0.0 2.0---- 0.3------------
1991-03-14 8.7 14.7 3.6--- 0.0 1.0---- 0.0------------
1991-03-13 8.5 13.7 4.6--- 0.0 1.0---- 0.0------------
1991-03-12 8.2 12.7 1.6--- 0.0 1.0---- 0.8------------
1991-03-11 4.5 7.0 1.2--- 0.0 1.3---- 0.3------------
1991-03-10 1.9 6.3 -1.0--- 0.0 1.3---- 0.0------------
1991-03-09 7.7 13.2 3.6--- 0.0 1.3---- 0.0------------
1991-03-08 6.1 13.7 0.3--- 0.0 1.7---- 0.0------------
1991-03-07 2.0 8.8 -2.7--- 0.0 2.7---- 0.0------------
1991-03-06 0.4 3.9 -1.9--- 0.0 3.0---- 0.0------------
1991-03-05 4.0 5.8 2.6--- 0.0 1.0---- 0.0------------
1991-03-04 4.5 8.3 0.8--- 0.0 1.0---- 0.0------------
1991-03-03 1.8 5.8 -1.9--- 0.0 1.0---- 0.0------------
1991-03-02 -0.7 3.5 -4.8--- 0.0 1.3---- 0.0------------
1991-03-01 -1.1 2.9 -5.3--- 0.0 1.7---- 0.0-- 1---------
1991-02-28 -0.8 0.9 -1.8--- 0.0 1.3---- 0.0-- 2---------
1991-02-27 -0.9 0.9 -2.0--- 0.0 2.3---- 0.2-- 2---------
1991-02-26 2.9 5.8 0.6--- 0.0 2.3---- 0.3-- 3---------
1991-02-25 5.4 9.8 2.6--- 0.0 1.7---- 0.3-- 5---------
1991-02-24 4.6 8.8 0.9--- 0.0 1.7---- 0.0-- 10---------
1991-02-23 3.8 8.8 0.9--- 0.0 1.0---- 0.0-- 18---------
1991-02-22 1.7 8.8 -1.7--- 0.0 1.3---- 0.0-- 24---------
1991-02-21 0.9 5.3 -2.0--- 0.0 1.0---- 0.0-- 26---------
1991-02-20 -0.2 3.9 -4.2--- 0.0 1.0---- 0.0-- 30---------
1991-02-19 -3.9 1.6 -7.8--- 0.0 1.0---- 0.0-- 37---------
1991-02-18 -1.9 0.5 -6.0--- 0.0 2.3---- 0.0-- 39---------
1991-02-17 -5.7 -2.0 -9.0--- 0.0 2.7---- 0.0-- 38---------
1991-02-16 -9.0 -6.6-11.0--- 0.0 1.7---- 1.8-- 38---------
1991-02-15 -6.5 -3.6-10.2--- 0.0 1.7---- 0.0-- 38---------
1991-02-14 -6.1 -4.0 -7.2--- 0.0 3.3---- 0.0-- 38---------
1991-02-13 -5.0 -3.8 -5.6--- 0.0 2.7---- 3.2-- 35---------
1991-02-12 -3.7 -2.0 -5.0--- 0.0 1.7---- 18.0-- 10---------
1991-02-11 0.8 5.8 -2.7--- 0.0 2.7---- 4.0-- 6---------
1991-02-10 -0.3 2.9 -8.4--- 0.0 2.0---- 0.0-- 9---------
1991-02-09 -2.1 0.1 -4.0--- 0.0 1.0---- 0.0-- 12---------
1991-02-08 -6.2 -1.0-12.0--- 0.0 2.0---- 2.6-- 10---------
1991-02-07 -9.7 -5.6-13.5--- 0.0 2.7---- 0.0-- 10---------
1991-02-06-10.5 -6.3-15.7--- 0.0 1.7---- 0.0-- 10---------
1991-02-05-15.1-10.0-16.7--- 0.0 2.0---- 1.5-- 9---------
1991-02-04 -9.0 -8.0-10.1--- 0.0 1.7---- 1.8-- 7---------
1991-02-03-11.3 -6.5-17.6--- 0.0 1.7---- 0.5-- 5---------
1991-02-02-15.9-10.5-21.6--- 0.0 2.0---- 0.0-- 5---------
1991-02-01-17.2-13.3-21.0--- 0.0 2.0---- 0.0-- 5---------
1991-01-31-15.5-12.0-17.5--- 0.0 1.3---- 0.0-- 5---------
1991-01-30 -8.7 -1.0-12.3--- 0.0 1.3---- 0.0-- 5---------
1991-01-29 -1.3 -0.4 -2.4--- 0.0 2.0---- 2.5-- 3---------
1991-01-28 -0.8 -0.2 -1.2--- 0.0 2.0---- 0.0-- 3---------
1991-01-27 -0.4 0.1 -1.6--- 0.0 1.7---- 2.4-- 3---------
1991-01-26 -0.5 0.1 -3.3--- 0.0 3.0---- 0.3-- 1---------
1991-01-25 -0.9 -0.2 -2.9--- 0.0 1.7---- 0.0-- 1---------
1991-01-24 -0.9 0.4 -1.9--- 0.0 2.0---- 0.6------------
1991-01-23 0.0 0.4 -1.8--- 0.0 1.7---- 0.0------------
1991-01-22 -2.6 -1.0 -6.7--- 0.0 1.0---- 0.0------------
1991-01-21 -4.1 -0.8 -7.8--- 0.0 1.3---- 0.0------------
1991-01-20 -3.9 -1.0 -9.6--- 0.0 1.0---- 0.0------------
1991-01-19 -6.6 -1.2-10.1--- 0.0 1.3---- 0.0------------
1991-01-18 -4.1 1.4 -6.8--- 0.0 1.7---- 0.0------------
1991-01-17 -4.3 0.4 -9.0--- 0.0 1.0---- 0.0------------
1991-01-16 -3.8 -0.7 -5.8--- 0.0 1.7---- 0.0------------
1991-01-15 -4.6 -3.2 -9.0--- 0.0 1.0---- 0.4------------
4566.4 ms

 

Źródłem pochodzenia danych jest Instytut Meteorologii i Gospodarki Wodnej – Państwowy Instytut Badawczy. Dane Instytutu Meteorologii i Gospodarki Wodnej – Państwowego Instytutu Badawczego zostały przetworzone.

Dane źródłowe można odnaleźć na stronie https://dane.imgw.pl